sensor_id;sensor_type;location;lat;lon;timestamp;P1;durP1;ratioP1;P2;durP2;ratioP2
39016;SDS011;24784;45.582;5.276;2022-09-03T00:01:44;8.30;;;7.43;;
39016;SDS011;24784;45.582;5.276;2022-09-03T00:04:18;11.90;;;7.68;;
39016;SDS011;24784;45.582;5.276;2022-09-03T00:07:02;8.88;;;6.55;;
39016;SDS011;24784;45.582;5.276;2022-09-03T00:09:38;13.32;;;7.03;;
39016;SDS011;24784;45.582;5.276;2022-09-03T00:12:17;9.80;;;7.38;;
39016;SDS011;24784;45.582;5.276;2022-09-03T00:17:30;10.07;;;7.97;;
39016;SDS011;24784;45.582;5.276;2022-09-03T00:22:42;12.07;;;7.13;;
39016;SDS011;24784;45.582;5.276;2022-09-03T00:25:12;9.30;;;7.03;;
39016;SDS011;24784;45.582;5.276;2022-09-03T00:27:42;10.55;;;6.95;;
39016;SDS011;24784;45.582;5.276;2022-09-03T00:30:13;8.60;;;6.90;;
39016;SDS011;24784;45.582;5.276;2022-09-03T00:32:44;9.40;;;6.68;;
39016;SDS011;24784;45.582;5.276;2022-09-03T00:35:28;10.95;;;6.93;;
39016;SDS011;24784;45.582;5.276;2022-09-03T00:37:57;8.30;;;6.90;;
39016;SDS011;24784;45.582;5.276;2022-09-03T00:43:23;8.90;;;6.60;;
39016;SDS011;24784;45.582;5.276;2022-09-03T00:57:12;11.68;;;7.65;;
39016;SDS011;24784;45.582;5.276;2022-09-03T00:59:43;8.68;;;7.07;;
39016;SDS011;24784;45.582;5.276;2022-09-03T01:02:34;8.63;;;6.65;;
39016;SDS011;24784;45.582;5.276;2022-09-03T01:11:38;12.90;;;6.82;;
39016;SDS011;24784;45.582;5.276;2022-09-03T01:25:16;10.48;;;7.07;;
39016;SDS011;24784;45.582;5.276;2022-09-03T01:31:31;11.90;;;7.70;;
39016;SDS011;24784;45.582;5.276;2022-09-03T01:39:10;8.88;;;7.55;;
39016;SDS011;24784;45.582;5.276;2022-09-03T01:41:49;10.18;;;7.20;;
39016;SDS011;24784;45.582;5.276;2022-09-03T01:49:51;13.68;;;8.48;;
39016;SDS011;24784;45.582;5.276;2022-09-03T02:03:13;12.88;;;7.47;;
39016;SDS011;24784;45.582;5.276;2022-09-03T02:05:40;13.82;;;8.18;;
39016;SDS011;24784;45.582;5.276;2022-09-03T02:08:08;12.73;;;7.65;;
39016;SDS011;24784;45.582;5.276;2022-09-03T02:10:45;13.38;;;8.50;;
39016;SDS011;24784;45.582;5.276;2022-09-03T02:15:49;12.07;;;8.15;;
39016;SDS011;24784;45.582;5.276;2022-09-03T02:18:27;10.02;;;7.90;;
39016;SDS011;24784;45.582;5.276;2022-09-03T02:20:55;11.52;;;7.55;;
39016;SDS011;24784;45.582;5.276;2022-09-03T02:23:23;11.25;;;7.35;;
39016;SDS011;24784;45.582;5.276;2022-09-03T02:25:51;14.18;;;8.02;;
39016;SDS011;24784;45.582;5.276;2022-09-03T02:28:21;10.52;;;8.05;;
39016;SDS011;24784;45.582;5.276;2022-09-03T02:30:48;12.38;;;8.48;;
39016;SDS011;24784;45.582;5.276;2022-09-03T02:33:14;8.75;;;7.13;;
39016;SDS011;24784;45.582;5.276;2022-09-03T02:35:40;13.82;;;8.10;;
39016;SDS011;24784;45.582;5.276;2022-09-03T02:38:17;10.55;;;8.00;;
39016;SDS011;24784;45.582;5.276;2022-09-03T02:40:45;13.57;;;7.97;;
39016;SDS011;24784;45.582;5.276;2022-09-03T02:43:53;10.95;;;7.25;;
39016;SDS011;24784;45.582;5.276;2022-09-03T02:46:11;12.18;;;7.70;;
39016;SDS011;24784;45.582;5.276;2022-09-03T02:48:41;9.43;;;7.60;;
39016;SDS011;24784;45.582;5.276;2022-09-03T02:51:06;13.70;;;8.13;;
39016;SDS011;24784;45.582;5.276;2022-09-03T02:53:32;20.27;;;8.48;;
39016;SDS011;24784;45.582;5.276;2022-09-03T02:55:59;13.75;;;8.25;;
39016;SDS011;24784;45.582;5.276;2022-09-03T02:58:26;11.52;;;8.00;;
39016;SDS011;24784;45.582;5.276;2022-09-03T03:00:52;10.60;;;8.18;;
39016;SDS011;24784;45.582;5.276;2022-09-03T03:03:19;11.13;;;7.50;;
39016;SDS011;24784;45.582;5.276;2022-09-03T03:05:46;12.65;;;7.78;;
39016;SDS011;24784;45.582;5.276;2022-09-03T03:08:14;11.50;;;7.68;;
39016;SDS011;24784;45.582;5.276;2022-09-03T03:10:45;14.43;;;7.85;;
39016;SDS011;24784;45.582;5.276;2022-09-03T03:13:13;10.85;;;7.00;;
39016;SDS011;24784;45.582;5.276;2022-09-03T03:15:40;16.00;;;7.90;;
39016;SDS011;24784;45.582;5.276;2022-09-03T03:18:06;9.25;;;7.93;;
39016;SDS011;24784;45.582;5.276;2022-09-03T03:20:32;12.07;;;7.75;;
39016;SDS011;24784;45.582;5.276;2022-09-03T03:23:01;14.82;;;7.88;;
39016;SDS011;24784;45.582;5.276;2022-09-03T03:25:30;10.95;;;8.10;;
39016;SDS011;24784;45.582;5.276;2022-09-03T03:27:57;13.05;;;7.80;;
39016;SDS011;24784;45.582;5.276;2022-09-03T03:30:23;13.10;;;7.53;;
39016;SDS011;24784;45.582;5.276;2022-09-03T03:32:48;11.45;;;8.27;;
39016;SDS011;24784;45.582;5.276;2022-09-03T03:35:16;14.80;;;7.60;;
39016;SDS011;24784;45.582;5.276;2022-09-03T03:37:42;12.05;;;7.93;;
39016;SDS011;24784;45.582;5.276;2022-09-03T03:40:08;10.30;;;8.10;;
39016;SDS011;24784;45.582;5.276;2022-09-03T03:42:34;8.73;;;7.60;;
39016;SDS011;24784;45.582;5.276;2022-09-03T03:45:00;12.82;;;8.15;;
39016;SDS011;24784;45.582;5.276;2022-09-03T03:47:29;12.98;;;7.97;;
39016;SDS011;24784;45.582;5.276;2022-09-03T03:49:56;13.13;;;7.88;;
39016;SDS011;24784;45.582;5.276;2022-09-03T03:52:22;10.73;;;7.78;;
39016;SDS011;24784;45.582;5.276;2022-09-03T03:54:48;13.10;;;8.52;;
39016;SDS011;24784;45.582;5.276;2022-09-03T03:57:15;13.43;;;8.02;;
39016;SDS011;24784;45.582;5.276;2022-09-03T03:59:40;11.63;;;7.80;;
39016;SDS011;24784;45.582;5.276;2022-09-03T04:02:06;9.30;;;7.93;;
39016;SDS011;24784;45.582;5.276;2022-09-03T04:04:32;9.35;;;7.63;;
39016;SDS011;24784;45.582;5.276;2022-09-03T04:06:58;21.25;;;8.75;;
39016;SDS011;24784;45.582;5.276;2022-09-03T04:09:23;15.68;;;9.05;;
39016;SDS011;24784;45.582;5.276;2022-09-03T04:11:49;12.60;;;8.75;;
39016;SDS011;24784;45.582;5.276;2022-09-03T04:14:15;13.00;;;9.57;;
39016;SDS011;24784;45.582;5.276;2022-09-03T04:16:42;12.23;;;9.27;;
39016;SDS011;24784;45.582;5.276;2022-09-03T04:19:10;13.77;;;9.73;;
39016;SDS011;24784;45.582;5.276;2022-09-03T04:21:36;16.23;;;8.15;;
39016;SDS011;24784;45.582;5.276;2022-09-03T04:24:03;12.00;;;8.43;;
39016;SDS011;24784;45.582;5.276;2022-09-03T04:26:30;21.48;;;9.63;;
39016;SDS011;24784;45.582;5.276;2022-09-03T04:28:57;14.55;;;8.90;;
39016;SDS011;24784;45.582;5.276;2022-09-03T04:31:25;13.57;;;8.23;;
39016;SDS011;24784;45.582;5.276;2022-09-03T04:33:51;14.98;;;8.60;;
39016;SDS011;24784;45.582;5.276;2022-09-03T04:36:18;12.90;;;8.23;;
39016;SDS011;24784;45.582;5.276;2022-09-03T04:38:46;13.98;;;8.65;;
39016;SDS011;24784;45.582;5.276;2022-09-03T04:41:14;9.98;;;7.80;;
39016;SDS011;24784;45.582;5.276;2022-09-03T04:43:44;11.55;;;7.97;;
39016;SDS011;24784;45.582;5.276;2022-09-03T04:46:12;11.43;;;8.13;;
39016;SDS011;24784;45.582;5.276;2022-09-03T04:48:39;11.82;;;7.55;;
39016;SDS011;24784;45.582;5.276;2022-09-03T04:51:06;12.52;;;7.90;;
39016;SDS011;24784;45.582;5.276;2022-09-03T04:53:34;14.18;;;8.73;;
39016;SDS011;24784;45.582;5.276;2022-09-03T04:56:01;14.13;;;7.78;;
39016;SDS011;24784;45.582;5.276;2022-09-03T04:58:28;11.52;;;7.30;;
39016;SDS011;24784;45.582;5.276;2022-09-03T05:00:54;9.95;;;7.50;;
39016;SDS011;24784;45.582;5.276;2022-09-03T05:03:20;12.95;;;8.02;;
39016;SDS011;24784;45.582;5.276;2022-09-03T05:05:53;12.40;;;8.30;;
39016;SDS011;24784;45.582;5.276;2022-09-03T05:08:20;11.03;;;7.63;;
39016;SDS011;24784;45.582;5.276;2022-09-03T05:10:46;8.98;;;7.43;;
39016;SDS011;24784;45.582;5.276;2022-09-03T05:13:12;11.57;;;8.00;;
39016;SDS011;24784;45.582;5.276;2022-09-03T05:15:37;12.65;;;7.28;;
39016;SDS011;24784;45.582;5.276;2022-09-03T05:18:04;10.73;;;7.85;;
39016;SDS011;24784;45.582;5.276;2022-09-03T05:20:30;13.18;;;7.88;;
39016;SDS011;24784;45.582;5.276;2022-09-03T05:22:59;12.60;;;8.40;;
39016;SDS011;24784;45.582;5.276;2022-09-03T05:25:28;11.18;;;7.65;;
39016;SDS011;24784;45.582;5.276;2022-09-03T05:27:57;13.68;;;7.93;;
39016;SDS011;24784;45.582;5.276;2022-09-03T05:30:23;15.70;;;7.75;;
39016;SDS011;24784;45.582;5.276;2022-09-03T05:32:50;11.25;;;7.68;;
39016;SDS011;24784;45.582;5.276;2022-09-03T05:35:16;11.85;;;8.40;;
39016;SDS011;24784;45.582;5.276;2022-09-03T05:37:42;9.55;;;8.20;;
39016;SDS011;24784;45.582;5.276;2022-09-03T05:40:08;11.75;;;9.10;;
39016;SDS011;24784;45.582;5.276;2022-09-03T05:42:35;14.57;;;7.68;;
39016;SDS011;24784;45.582;5.276;2022-09-03T05:45:06;11.82;;;8.32;;
39016;SDS011;24784;45.582;5.276;2022-09-03T05:47:38;14.02;;;8.55;;
39016;SDS011;24784;45.582;5.276;2022-09-03T05:50:07;12.05;;;7.65;;
39016;SDS011;24784;45.582;5.276;2022-09-03T05:52:34;13.10;;;7.38;;
39016;SDS011;24784;45.582;5.276;2022-09-03T05:55:04;15.55;;;8.30;;
39016;SDS011;24784;45.582;5.276;2022-09-03T05:57:30;15.43;;;8.40;;
39016;SDS011;24784;45.582;5.276;2022-09-03T05:59:55;10.82;;;8.27;;
39016;SDS011;24784;45.582;5.276;2022-09-03T06:02:21;15.43;;;8.90;;
39016;SDS011;24784;45.582;5.276;2022-09-03T06:04:47;13.45;;;8.38;;
39016;SDS011;24784;45.582;5.276;2022-09-03T06:07:13;11.13;;;8.35;;
39016;SDS011;24784;45.582;5.276;2022-09-03T06:09:39;10.18;;;8.30;;
39016;SDS011;24784;45.582;5.276;2022-09-03T06:12:05;13.23;;;8.27;;
39016;SDS011;24784;45.582;5.276;2022-09-03T06:14:31;10.55;;;8.45;;
39016;SDS011;24784;45.582;5.276;2022-09-03T06:16:57;15.90;;;8.45;;
39016;SDS011;24784;45.582;5.276;2022-09-03T06:19:23;10.15;;;7.75;;
39016;SDS011;24784;45.582;5.276;2022-09-03T06:21:49;15.73;;;8.38;;
39016;SDS011;24784;45.582;5.276;2022-09-03T06:24:16;14.00;;;9.18;;
39016;SDS011;24784;45.582;5.276;2022-09-03T06:26:44;14.98;;;9.00;;
39016;SDS011;24784;45.582;5.276;2022-09-03T06:29:10;10.85;;;8.18;;
39016;SDS011;24784;45.582;5.276;2022-09-03T06:31:36;11.70;;;8.40;;
39016;SDS011;24784;45.582;5.276;2022-09-03T06:34:07;11.13;;;8.70;;
39016;SDS011;24784;45.582;5.276;2022-09-03T06:36:36;17.17;;;9.23;;
39016;SDS011;24784;45.582;5.276;2022-09-03T06:39:02;15.57;;;8.50;;
39016;SDS011;24784;45.582;5.276;2022-09-03T06:41:29;10.93;;;8.07;;
39016;SDS011;24784;45.582;5.276;2022-09-03T06:44:05;12.75;;;9.00;;
39016;SDS011;24784;45.582;5.276;2022-09-03T06:46:36;10.63;;;8.68;;
39016;SDS011;24784;45.582;5.276;2022-09-03T06:49:03;14.15;;;8.80;;
39016;SDS011;24784;45.582;5.276;2022-09-03T06:51:29;16.80;;;8.95;;
39016;SDS011;24784;45.582;5.276;2022-09-03T06:54:04;17.50;;;9.85;;
39016;SDS011;24784;45.582;5.276;2022-09-03T06:56:34;12.43;;;9.75;;
39016;SDS011;24784;45.582;5.276;2022-09-03T06:59:08;13.55;;;9.07;;
39016;SDS011;24784;45.582;5.276;2022-09-03T07:04:03;15.27;;;9.63;;
39016;SDS011;24784;45.582;5.276;2022-09-03T07:06:30;11.00;;;8.65;;
39016;SDS011;24784;45.582;5.276;2022-09-03T07:09:01;13.82;;;8.90;;
39016;SDS011;24784;45.582;5.276;2022-09-03T07:11:27;15.75;;;8.45;;
39016;SDS011;24784;45.582;5.276;2022-09-03T07:13:55;15.55;;;9.30;;
39016;SDS011;24784;45.582;5.276;2022-09-03T07:16:22;12.15;;;7.85;;
39016;SDS011;24784;45.582;5.276;2022-09-03T07:18:52;14.05;;;8.55;;
39016;SDS011;24784;45.582;5.276;2022-09-03T07:21:20;18.58;;;8.48;;
39016;SDS011;24784;45.582;5.276;2022-09-03T07:23:48;9.98;;;7.47;;
39016;SDS011;24784;45.582;5.276;2022-09-03T07:26:19;12.20;;;8.00;;
39016;SDS011;24784;45.582;5.276;2022-09-03T07:28:52;12.07;;;7.32;;
39016;SDS011;24784;45.582;5.276;2022-09-03T07:31:22;11.23;;;7.88;;
39016;SDS011;24784;45.582;5.276;2022-09-03T07:33:53;12.13;;;7.75;;
39016;SDS011;24784;45.582;5.276;2022-09-03T07:36:20;11.23;;;7.30;;
39016;SDS011;24784;45.582;5.276;2022-09-03T07:38:47;10.68;;;7.05;;
39016;SDS011;24784;45.582;5.276;2022-09-03T07:41:14;11.45;;;8.32;;
39016;SDS011;24784;45.582;5.276;2022-09-03T07:43:41;11.73;;;7.70;;
39016;SDS011;24784;45.582;5.276;2022-09-03T07:46:08;12.90;;;7.43;;
39016;SDS011;24784;45.582;5.276;2022-09-03T07:48:37;13.02;;;7.15;;
39016;SDS011;24784;45.582;5.276;2022-09-03T07:51:04;9.48;;;7.32;;
39016;SDS011;24784;45.582;5.276;2022-09-03T07:53:30;12.02;;;8.15;;
39016;SDS011;24784;45.582;5.276;2022-09-03T07:56:05;11.15;;;7.97;;
39016;SDS011;24784;45.582;5.276;2022-09-03T07:58:32;10.57;;;6.95;;
39016;SDS011;24784;45.582;5.276;2022-09-03T08:01:03;10.98;;;7.53;;
39016;SDS011;24784;45.582;5.276;2022-09-03T08:03:32;14.68;;;8.07;;
39016;SDS011;24784;45.582;5.276;2022-09-03T08:06:03;12.77;;;8.20;;
39016;SDS011;24784;45.582;5.276;2022-09-03T08:08:30;11.63;;;7.97;;
39016;SDS011;24784;45.582;5.276;2022-09-03T08:11:06;14.70;;;6.85;;
39016;SDS011;24784;45.582;5.276;2022-09-03T08:13:38;14.23;;;7.55;;
39016;SDS011;24784;45.582;5.276;2022-09-03T08:16:12;9.95;;;6.38;;
39016;SDS011;24784;45.582;5.276;2022-09-03T08:18:56;10.10;;;6.53;;
39016;SDS011;24784;45.582;5.276;2022-09-03T08:21:39;7.13;;;6.15;;
39016;SDS011;24784;45.582;5.276;2022-09-03T08:24:15;10.65;;;5.93;;
39016;SDS011;24784;45.582;5.276;2022-09-03T08:29:50;7.43;;;5.55;;
39016;SDS011;24784;45.582;5.276;2022-09-03T08:34:51;10.70;;;5.22;;
39016;SDS011;24784;45.582;5.276;2022-09-03T08:37:17;8.70;;;4.80;;
39016;SDS011;24784;45.582;5.276;2022-09-03T08:39:53;9.48;;;5.32;;
39016;SDS011;24784;45.582;5.276;2022-09-03T08:45:14;7.53;;;5.18;;
39016;SDS011;24784;45.582;5.276;2022-09-03T08:47:51;9.70;;;4.40;;
39016;SDS011;24784;45.582;5.276;2022-09-03T08:53:02;4.30;;;3.20;;
39016;SDS011;24784;45.582;5.276;2022-09-03T08:55:35;8.13;;;3.10;;
39016;SDS011;24784;45.582;5.276;2022-09-03T08:58:10;4.20;;;3.28;;
39016;SDS011;24784;45.582;5.276;2022-09-03T09:00:48;4.78;;;3.47;;
39016;SDS011;24784;45.582;5.276;2022-09-03T09:08:46;4.22;;;2.70;;
39016;SDS011;24784;45.582;5.276;2022-09-03T09:14:38;5.32;;;2.97;;
39016;SDS011;24784;45.582;5.276;2022-09-03T09:17:36;7.43;;;2.60;;
39016;SDS011;24784;45.582;5.276;2022-09-03T09:20:18;4.82;;;3.00;;
39016;SDS011;24784;45.582;5.276;2022-09-03T09:22:56;3.88;;;2.60;;
39016;SDS011;24784;45.582;5.276;2022-09-03T09:25:30;7.57;;;3.28;;
39016;SDS011;24784;45.582;5.276;2022-09-03T09:28:01;4.72;;;2.72;;
39016;SDS011;24784;45.582;5.276;2022-09-03T09:30:32;6.90;;;3.10;;
39016;SDS011;24784;45.582;5.276;2022-09-03T09:33:01;3.13;;;2.53;;
39016;SDS011;24784;45.582;5.276;2022-09-03T09:35:28;6.38;;;2.92;;
39016;SDS011;24784;45.582;5.276;2022-09-03T09:37:55;4.15;;;2.78;;
39016;SDS011;24784;45.582;5.276;2022-09-03T09:43:03;10.20;;;3.00;;
39016;SDS011;24784;45.582;5.276;2022-09-03T09:45:32;4.60;;;3.25;;
39016;SDS011;24784;45.582;5.276;2022-09-03T09:47:59;4.43;;;2.33;;
39016;SDS011;24784;45.582;5.276;2022-09-03T09:50:26;4.00;;;2.78;;
39016;SDS011;24784;45.582;5.276;2022-09-03T09:53:02;4.25;;;2.38;;
39016;SDS011;24784;45.582;5.276;2022-09-03T09:55:47;3.50;;;2.55;;
39016;SDS011;24784;45.582;5.276;2022-09-03T09:58:18;4.22;;;2.92;;
39016;SDS011;24784;45.582;5.276;2022-09-03T10:03:40;5.95;;;2.55;;
39016;SDS011;24784;45.582;5.276;2022-09-03T10:06:23;4.75;;;2.40;;
39016;SDS011;24784;45.582;5.276;2022-09-03T10:09:18;7.05;;;2.95;;
39016;SDS011;24784;45.582;5.276;2022-09-03T10:11:49;4.00;;;2.67;;
39016;SDS011;24784;45.582;5.276;2022-09-03T10:14:22;6.35;;;2.30;;
39016;SDS011;24784;45.582;5.276;2022-09-03T10:16:54;4.97;;;2.60;;
39016;SDS011;24784;45.582;5.276;2022-09-03T10:19:39;5.68;;;2.90;;
39016;SDS011;24784;45.582;5.276;2022-09-03T10:22:30;3.08;;;2.42;;
39016;SDS011;24784;45.582;5.276;2022-09-03T10:25:05;5.75;;;2.35;;
39016;SDS011;24784;45.582;5.276;2022-09-03T10:27:33;5.68;;;2.58;;
39016;SDS011;24784;45.582;5.276;2022-09-03T10:29:59;4.30;;;2.40;;
39016;SDS011;24784;45.582;5.276;2022-09-03T10:40:41;6.57;;;2.58;;
39016;SDS011;24784;45.582;5.276;2022-09-03T10:43:22;3.85;;;2.45;;
39016;SDS011;24784;45.582;5.276;2022-09-03T10:51:05;6.38;;;2.53;;
39016;SDS011;24784;45.582;5.276;2022-09-03T10:53:57;2.60;;;2.38;;
39016;SDS011;24784;45.582;5.276;2022-09-03T10:56:53;4.10;;;2.50;;
39016;SDS011;24784;45.582;5.276;2022-09-03T11:02:26;3.08;;;2.15;;
39016;SDS011;24784;45.582;5.276;2022-09-03T11:05:01;4.40;;;2.25;;
39016;SDS011;24784;45.582;5.276;2022-09-03T11:07:35;7.78;;;4.45;;
39016;SDS011;24784;45.582;5.276;2022-09-03T11:10:27;3.10;;;2.33;;
39016;SDS011;24784;45.582;5.276;2022-09-03T11:15:31;3.95;;;2.28;;
39016;SDS011;24784;45.582;5.276;2022-09-03T11:18:11;5.28;;;3.10;;
39016;SDS011;24784;45.582;5.276;2022-09-03T11:20:45;2.78;;;2.17;;
39016;SDS011;24784;45.582;5.276;2022-09-03T11:23:13;4.22;;;3.20;;
39016;SDS011;24784;45.582;5.276;2022-09-03T11:25:43;4.88;;;2.75;;
39016;SDS011;24784;45.582;5.276;2022-09-03T11:36:10;2.47;;;2.25;;
39016;SDS011;24784;45.582;5.276;2022-09-03T11:38:36;4.22;;;2.50;;
39016;SDS011;24784;45.582;5.276;2022-09-03T11:43:50;3.25;;;2.30;;
39016;SDS011;24784;45.582;5.276;2022-09-03T11:48:48;3.00;;;2.17;;
39016;SDS011;24784;45.582;5.276;2022-09-03T11:56:49;2.97;;;2.42;;
39016;SDS011;24784;45.582;5.276;2022-09-03T11:59:24;3.75;;;2.20;;
39016;SDS011;24784;45.582;5.276;2022-09-03T12:08:05;4.22;;;2.35;;
39016;SDS011;24784;45.582;5.276;2022-09-03T12:14:43;3.83;;;2.42;;
39016;SDS011;24784;45.582;5.276;2022-09-03T12:22:41;4.68;;;2.58;;
39016;SDS011;24784;45.582;5.276;2022-09-03T12:25:13;2.97;;;2.30;;
39016;SDS011;24784;45.582;5.276;2022-09-03T12:30:43;4.10;;;2.35;;
39016;SDS011;24784;45.582;5.276;2022-09-03T12:33:10;10.48;;;2.65;;
39016;SDS011;24784;45.582;5.276;2022-09-03T12:35:38;4.13;;;2.88;;
39016;SDS011;24784;45.582;5.276;2022-09-03T12:38:04;6.82;;;2.95;;
39016;SDS011;24784;45.582;5.276;2022-09-03T12:40:29;4.55;;;2.75;;
39016;SDS011;24784;45.582;5.276;2022-09-03T12:43:10;5.15;;;2.80;;
39016;SDS011;24784;45.582;5.276;2022-09-03T12:45:44;4.38;;;2.65;;
39016;SDS011;24784;45.582;5.276;2022-09-03T12:48:18;6.20;;;2.83;;
39016;SDS011;24784;45.582;5.276;2022-09-03T12:50:45;8.93;;;2.92;;
39016;SDS011;24784;45.582;5.276;2022-09-03T12:53:20;3.17;;;2.88;;
39016;SDS011;24784;45.582;5.276;2022-09-03T12:55:50;8.35;;;2.60;;
39016;SDS011;24784;45.582;5.276;2022-09-03T13:00:51;4.47;;;3.08;;
39016;SDS011;24784;45.582;5.276;2022-09-03T13:03:44;5.47;;;2.70;;
39016;SDS011;24784;45.582;5.276;2022-09-03T13:06:19;7.20;;;2.70;;
39016;SDS011;24784;45.582;5.276;2022-09-03T13:11:15;3.88;;;2.53;;
39016;SDS011;24784;45.582;5.276;2022-09-03T13:13:54;4.28;;;2.65;;
39016;SDS011;24784;45.582;5.276;2022-09-03T13:16:40;5.15;;;2.92;;
39016;SDS011;24784;45.582;5.276;2022-09-03T13:19:13;4.65;;;2.80;;
39016;SDS011;24784;45.582;5.276;2022-09-03T13:24:54;5.72;;;2.63;;
39016;SDS011;24784;45.582;5.276;2022-09-03T13:27:27;4.10;;;2.53;;
39016;SDS011;24784;45.582;5.276;2022-09-03T13:30:07;6.43;;;2.63;;
39016;SDS011;24784;45.582;5.276;2022-09-03T13:35:50;10.25;;;2.88;;
39016;SDS011;24784;45.582;5.276;2022-09-03T13:38:28;6.55;;;3.10;;
39016;SDS011;24784;45.582;5.276;2022-09-03T13:43:56;5.80;;;2.75;;
39016;SDS011;24784;45.582;5.276;2022-09-03T13:47:02;4.57;;;2.22;;
39016;SDS011;24784;45.582;5.276;2022-09-03T13:49:42;6.68;;;2.83;;
39016;SDS011;24784;45.582;5.276;2022-09-03T13:52:46;7.80;;;2.15;;
39016;SDS011;24784;45.582;5.276;2022-09-03T13:55:32;5.88;;;2.35;;
39016;SDS011;24784;45.582;5.276;2022-09-03T14:03:52;4.18;;;2.10;;
39016;SDS011;24784;45.582;5.276;2022-09-03T14:20:06;5.63;;;2.60;;
39016;SDS011;24784;45.582;5.276;2022-09-03T14:25:28;6.30;;;2.17;;
39016;SDS011;24784;45.582;5.276;2022-09-03T14:28:13;7.60;;;2.15;;
39016;SDS011;24784;45.582;5.276;2022-09-03T14:30:54;3.97;;;1.85;;
39016;SDS011;24784;45.582;5.276;2022-09-03T14:36:31;3.55;;;2.05;;
39016;SDS011;24784;45.582;5.276;2022-09-03T14:39:30;4.50;;;2.10;;
39016;SDS011;24784;45.582;5.276;2022-09-03T14:42:22;3.10;;;1.95;;
39016;SDS011;24784;45.582;5.276;2022-09-03T14:50:42;2.67;;;2.08;;
39016;SDS011;24784;45.582;5.276;2022-09-03T14:53:40;3.75;;;2.88;;
39016;SDS011;24784;45.582;5.276;2022-09-03T15:07:40;2.92;;;1.60;;
39016;SDS011;24784;45.582;5.276;2022-09-03T15:10:11;3.92;;;1.67;;
39016;SDS011;24784;45.582;5.276;2022-09-03T15:12:45;5.07;;;1.63;;
39016;SDS011;24784;45.582;5.276;2022-09-03T15:20:42;5.65;;;1.63;;
39016;SDS011;24784;45.582;5.276;2022-09-03T15:23:30;3.67;;;1.50;;
39016;SDS011;24784;45.582;5.276;2022-09-03T15:37:38;2.45;;;1.50;;
39016;SDS011;24784;45.582;5.276;2022-09-03T15:43:16;3.38;;;1.45;;
39016;SDS011;24784;45.582;5.276;2022-09-03T15:56:24;2.63;;;2.10;;
39016;SDS011;24784;45.582;5.276;2022-09-03T15:59:00;5.05;;;1.80;;
39016;SDS011;24784;45.582;5.276;2022-09-03T16:07:17;2.63;;;1.95;;
39016;SDS011;24784;45.582;5.276;2022-09-03T16:10:16;1.95;;;1.60;;
39016;SDS011;24784;45.582;5.276;2022-09-03T16:15:48;5.57;;;1.85;;
39016;SDS011;24784;45.582;5.276;2022-09-03T16:28:51;6.38;;;1.95;;
39016;SDS011;24784;45.582;5.276;2022-09-03T16:34:11;3.53;;;1.80;;
39016;SDS011;24784;45.582;5.276;2022-09-03T16:36:43;4.32;;;1.80;;
39016;SDS011;24784;45.582;5.276;2022-09-03T16:42:25;4.03;;;1.77;;
39016;SDS011;24784;45.582;5.276;2022-09-03T17:15:31;4.15;;;2.25;;
39016;SDS011;24784;45.582;5.276;2022-09-03T17:18:20;6.10;;;2.00;;
39016;SDS011;24784;45.582;5.276;2022-09-03T17:21:07;4.53;;;2.10;;
39016;SDS011;24784;45.582;5.276;2022-09-03T17:23:52;2.72;;;1.95;;
39016;SDS011;24784;45.582;5.276;2022-09-03T17:39:44;3.28;;;1.83;;
39016;SDS011;24784;45.582;5.276;2022-09-03T17:42:39;6.50;;;1.80;;
39016;SDS011;24784;45.582;5.276;2022-09-03T17:48:56;4.78;;;1.80;;
39016;SDS011;24784;45.582;5.276;2022-09-03T17:54:39;7.30;;;1.98;;
39016;SDS011;24784;45.582;5.276;2022-09-03T17:57:16;3.97;;;1.90;;
39016;SDS011;24784;45.582;5.276;2022-09-03T18:03:24;3.10;;;2.08;;
39016;SDS011;24784;45.582;5.276;2022-09-03T18:11:47;4.57;;;2.13;;
39016;SDS011;24784;45.582;5.276;2022-09-03T18:17:10;6.70;;;2.05;;
39016;SDS011;24784;45.582;5.276;2022-09-03T18:19:49;5.97;;;2.13;;
39016;SDS011;24784;45.582;5.276;2022-09-03T18:22:47;5.63;;;2.20;;
39016;SDS011;24784;45.582;5.276;2022-09-03T18:25:42;7.63;;;2.50;;
39016;SDS011;24784;45.582;5.276;2022-09-03T18:28:39;4.65;;;2.53;;
39016;SDS011;24784;45.582;5.276;2022-09-03T18:31:29;4.32;;;2.35;;
39016;SDS011;24784;45.582;5.276;2022-09-03T18:34:20;9.65;;;3.03;;
39016;SDS011;24784;45.582;5.276;2022-09-03T18:37:09;6.63;;;2.90;;
39016;SDS011;24784;45.582;5.276;2022-09-03T18:39:53;3.78;;;3.15;;
39016;SDS011;24784;45.582;5.276;2022-09-03T18:48:35;9.32;;;2.53;;
39016;SDS011;24784;45.582;5.276;2022-09-03T19:15:51;5.03;;;2.30;;
39016;SDS011;24784;45.582;5.276;2022-09-03T19:22:09;5.75;;;2.25;;
39016;SDS011;24784;45.582;5.276;2022-09-03T19:25:02;6.40;;;2.65;;
39016;SDS011;24784;45.582;5.276;2022-09-03T19:30:52;6.10;;;2.60;;
39016;SDS011;24784;45.582;5.276;2022-09-03T19:37:19;9.15;;;2.72;;
39016;SDS011;24784;45.582;5.276;2022-09-03T19:43:47;3.95;;;2.72;;
39016;SDS011;24784;45.582;5.276;2022-09-03T19:46:51;5.97;;;2.80;;
39016;SDS011;24784;45.582;5.276;2022-09-03T19:55:46;7.05;;;2.88;;
39016;SDS011;24784;45.582;5.276;2022-09-03T19:58:36;6.20;;;3.35;;
39016;SDS011;24784;45.582;5.276;2022-09-03T20:01:24;7.95;;;3.03;;
39016;SDS011;24784;45.582;5.276;2022-09-03T20:04:15;7.68;;;2.85;;
39016;SDS011;24784;45.582;5.276;2022-09-03T20:07:01;5.50;;;2.88;;
39016;SDS011;24784;45.582;5.276;2022-09-03T20:09:48;5.18;;;2.80;;
39016;SDS011;24784;45.582;5.276;2022-09-03T20:12:36;6.28;;;2.80;;
39016;SDS011;24784;45.582;5.276;2022-09-03T20:15:06;5.90;;;2.63;;
39016;SDS011;24784;45.582;5.276;2022-09-03T20:20:30;11.25;;;2.90;;
39016;SDS011;24784;45.582;5.276;2022-09-03T20:47:39;5.78;;;3.38;;
39016;SDS011;24784;45.582;5.276;2022-09-03T20:55:28;3.72;;;2.90;;
39016;SDS011;24784;45.582;5.276;2022-09-03T21:01:39;5.68;;;2.90;;
39016;SDS011;24784;45.582;5.276;2022-09-03T21:03:34;4.97;;;3.08;;
39016;SDS011;24784;45.582;5.276;2022-09-03T21:06:47;9.20;;;2.80;;
39016;SDS011;24784;45.582;5.276;2022-09-03T21:09:26;5.95;;;2.65;;
39016;SDS011;24784;45.582;5.276;2022-09-03T21:12:23;4.95;;;2.97;;
39016;SDS011;24784;45.582;5.276;2022-09-03T21:15:22;10.30;;;3.45;;
39016;SDS011;24784;45.582;5.276;2022-09-03T21:21:26;4.30;;;2.63;;
39016;SDS011;24784;45.582;5.276;2022-09-03T21:23:31;3.47;;;2.50;;
39016;SDS011;24784;45.582;5.276;2022-09-03T21:28:43;4.32;;;2.72;;
39016;SDS011;24784;45.582;5.276;2022-09-03T21:31:32;3.85;;;2.53;;
39016;SDS011;24784;45.582;5.276;2022-09-03T21:34:08;6.32;;;2.72;;
39016;SDS011;24784;45.582;5.276;2022-09-03T21:36:41;7.43;;;2.67;;
39016;SDS011;24784;45.582;5.276;2022-09-03T21:41:42;7.07;;;3.00;;
39016;SDS011;24784;45.582;5.276;2022-09-03T21:45:01;5.63;;;2.60;;
39016;SDS011;24784;45.582;5.276;2022-09-03T21:47:10;4.82;;;3.08;;
39016;SDS011;24784;45.582;5.276;2022-09-03T21:49:49;4.82;;;2.20;;
39016;SDS011;24784;45.582;5.276;2022-09-03T21:52:32;4.13;;;2.33;;
39016;SDS011;24784;45.582;5.276;2022-09-03T21:56:09;5.65;;;2.50;;
39016;SDS011;24784;45.582;5.276;2022-09-03T21:58:50;3.60;;;2.40;;
39016;SDS011;24784;45.582;5.276;2022-09-03T22:01:11;4.25;;;2.42;;
39016;SDS011;24784;45.582;5.276;2022-09-03T22:03:42;4.88;;;2.40;;
39016;SDS011;24784;45.582;5.276;2022-09-03T22:06:13;7.53;;;2.08;;
39016;SDS011;24784;45.582;5.276;2022-09-03T22:09:44;2.05;;;1.77;;
39016;SDS011;24784;45.582;5.276;2022-09-03T22:12:05;5.60;;;2.22;;
39016;SDS011;24784;45.582;5.276;2022-09-03T22:14:47;6.88;;;2.53;;
39016;SDS011;24784;45.582;5.276;2022-09-03T22:17:18;1.98;;;1.77;;
39016;SDS011;24784;45.582;5.276;2022-09-03T22:20:08;4.03;;;2.20;;
39016;SDS011;24784;45.582;5.276;2022-09-03T22:22:43;2.75;;;1.63;;